sensor_id;sensor_type;location;lat;lon;timestamp;temperature;humidity
16491;DHT22;8356;51.214;3.270;2022-12-07T00:01:37;230.90;2252.80
16491;DHT22;8356;51.214;3.270;2022-12-07T00:04:04;230.80;2252.80
16491;DHT22;8356;51.214;3.270;2022-12-07T00:06:36;230.90;2252.80
16491;DHT22;8356;51.214;3.270;2022-12-07T00:09:04;230.90;2252.80
16491;DHT22;8356;51.214;3.270;2022-12-07T00:11:29;230.90;2252.80
16491;DHT22;8356;51.214;3.270;2022-12-07T00:13:57;230.80;2252.80
16491;DHT22;8356;51.214;3.270;2022-12-07T00:16:25;230.90;2252.80
16491;DHT22;8356;51.214;3.270;2022-12-07T00:18:51;231.00;2252.80
16491;DHT22;8356;51.214;3.270;2022-12-07T00:21:25;231.00;2252.80
16491;DHT22;8356;51.214;3.270;2022-12-07T00:23:53;230.90;2252.80
16491;DHT22;8356;51.214;3.270;2022-12-07T00:26:30;230.90;2252.80
16491;DHT22;8356;51.214;3.270;2022-12-07T00:28:59;230.90;2252.80
16491;DHT22;8356;51.214;3.270;2022-12-07T00:31:29;230.80;2252.80
16491;DHT22;8356;51.214;3.270;2022-12-07T00:33:55;230.50;2252.80
16491;DHT22;8356;51.214;3.270;2022-12-07T00:36:22;230.40;2252.80
16491;DHT22;8356;51.214;3.270;2022-12-07T00:38:48;205.70;2252.80
16491;DHT22;8356;51.214;3.270;2022-12-07T00:41:19;230.40;2252.80
16491;DHT22;8356;51.214;3.270;2022-12-07T00:43:46;230.60;2252.80
16491;DHT22;8356;51.214;3.270;2022-12-07T00:46:13;230.70;2252.80
16491;DHT22;8356;51.214;3.270;2022-12-07T00:48:39;230.80;2252.80
16491;DHT22;8356;51.214;3.270;2022-12-07T00:51:06;230.90;2252.80
16491;DHT22;8356;51.214;3.270;2022-12-07T00:53:34;231.10;2252.80
16491;DHT22;8356;51.214;3.270;2022-12-07T00:56:09;231.20;2252.80
16491;DHT22;8356;51.214;3.270;2022-12-07T00:58:35;231.20;2252.80
16491;DHT22;8356;51.214;3.270;2022-12-07T01:01:01;231.20;2252.80
16491;DHT22;8356;51.214;3.270;2022-12-07T01:03:28;231.20;2252.80
16491;DHT22;8356;51.214;3.270;2022-12-07T01:05:54;231.10;2252.80
16491;DHT22;8356;51.214;3.270;2022-12-07T01:08:21;231.00;2252.80
16491;DHT22;8356;51.214;3.270;2022-12-07T01:10:47;231.00;2252.80
16491;DHT22;8356;51.214;3.270;2022-12-07T01:13:14;231.00;2252.80
16491;DHT22;8356;51.214;3.270;2022-12-07T01:15:44;231.00;2252.80
16491;DHT22;8356;51.214;3.270;2022-12-07T01:18:10;230.90;2252.80
16491;DHT22;8356;51.214;3.270;2022-12-07T01:20:36;230.70;2252.80
16491;DHT22;8356;51.214;3.270;2022-12-07T01:23:02;230.90;2252.80
16491;DHT22;8356;51.214;3.270;2022-12-07T01:25:28;230.90;2252.80
16491;DHT22;8356;51.214;3.270;2022-12-07T01:27:53;230.90;2252.80
16491;DHT22;8356;51.214;3.270;2022-12-07T01:30:19;230.90;2252.80
16491;DHT22;8356;51.214;3.270;2022-12-07T01:32:45;230.90;2252.80
16491;DHT22;8356;51.214;3.270;2022-12-07T01:35:10;230.90;2252.80
16491;DHT22;8356;51.214;3.270;2022-12-07T01:37:37;230.90;2252.80
16491;DHT22;8356;51.214;3.270;2022-12-07T01:40:06;230.90;2252.80
16491;DHT22;8356;51.214;3.270;2022-12-07T01:42:34;230.90;2252.80
16491;DHT22;8356;51.214;3.270;2022-12-07T01:47:47;230.70;2252.80
16491;DHT22;8356;51.214;3.270;2022-12-07T01:50:14;230.70;2252.80
16491;DHT22;8356;51.214;3.270;2022-12-07T01:52:41;230.70;2252.80
16491;DHT22;8356;51.214;3.270;2022-12-07T01:55:11;230.70;2252.80
16491;DHT22;8356;51.214;3.270;2022-12-07T01:57:42;230.70;2252.80
16491;DHT22;8356;51.214;3.270;2022-12-07T02:00:12;230.70;2252.80
16491;DHT22;8356;51.214;3.270;2022-12-07T02:05:43;230.70;2252.80
16491;DHT22;8356;51.214;3.270;2022-12-07T02:08:10;230.60;2252.80
16491;DHT22;8356;51.214;3.270;2022-12-07T02:10:37;230.60;2252.80
16491;DHT22;8356;51.214;3.270;2022-12-07T02:13:24;230.50;2252.80
16491;DHT22;8356;51.214;3.270;2022-12-07T02:18:54;230.50;2252.80
16491;DHT22;8356;51.214;3.270;2022-12-07T02:21:26;230.40;2252.80
16491;DHT22;8356;51.214;3.270;2022-12-07T02:29:23;230.70;2252.80
16491;DHT22;8356;51.214;3.270;2022-12-07T02:32:14;230.70;2252.80
16491;DHT22;8356;51.214;3.270;2022-12-07T02:37:18;230.70;2252.80
16491;DHT22;8356;51.214;3.270;2022-12-07T02:39:54;205.70;2252.80
16491;DHT22;8356;51.214;3.270;2022-12-07T02:42:32;205.50;2252.80
16491;DHT22;8356;51.214;3.270;2022-12-07T02:45:00;205.50;2252.80
16491;DHT22;8356;51.214;3.270;2022-12-07T02:47:27;230.50;2252.80
16491;DHT22;8356;51.214;3.270;2022-12-07T02:49:55;230.40;2252.80
16491;DHT22;8356;51.214;3.270;2022-12-07T02:52:21;230.50;2252.80
16491;DHT22;8356;51.214;3.270;2022-12-07T02:54:46;230.70;2252.80
16491;DHT22;8356;51.214;3.270;2022-12-07T03:00:04;230.70;2252.80
16491;DHT22;8356;51.214;3.270;2022-12-07T03:15:47;230.60;2252.80
16491;DHT22;8356;51.214;3.270;2022-12-07T03:18:18;230.50;2252.80
16491;DHT22;8356;51.214;3.270;2022-12-07T03:20:46;230.70;2252.80
16491;DHT22;8356;51.214;3.270;2022-12-07T03:23:13;230.70;2252.80
16491;DHT22;8356;51.214;3.270;2022-12-07T03:25:46;230.70;2252.80
16491;DHT22;8356;51.214;3.270;2022-12-07T03:28:16;230.70;2252.80
16491;DHT22;8356;51.214;3.270;2022-12-07T03:30:56;230.60;2252.80
16491;DHT22;8356;51.214;3.270;2022-12-07T03:33:40;230.70;2252.80
16491;DHT22;8356;51.214;3.270;2022-12-07T03:36:17;230.70;2252.80
16491;DHT22;8356;51.214;3.270;2022-12-07T03:38:55;230.70;2252.80
16491;DHT22;8356;51.214;3.270;2022-12-07T03:41:25;230.60;2252.80
16491;DHT22;8356;51.214;3.270;2022-12-07T03:43:54;230.70;2252.80
16491;DHT22;8356;51.214;3.270;2022-12-07T03:46:43;230.50;2252.80
16491;DHT22;8356;51.214;3.270;2022-12-07T03:49:21;205.60;2252.80
16491;DHT22;8356;51.214;3.270;2022-12-07T03:52:40;205.30;2252.80
16491;DHT22;8356;51.214;3.270;2022-12-07T03:55:14;205.30;2252.80
16491;DHT22;8356;51.214;3.270;2022-12-07T03:57:41;205.40;2252.80
16491;DHT22;8356;51.214;3.270;2022-12-07T04:00:10;205.60;2252.80
16491;DHT22;8356;51.214;3.270;2022-12-07T04:02:36;230.40;2252.80
16491;DHT22;8356;51.214;3.270;2022-12-07T04:05:02;230.70;2252.80
16491;DHT22;8356;51.214;3.270;2022-12-07T04:07:28;205.60;2252.80
16491;DHT22;8356;51.214;3.270;2022-12-07T04:09:54;230.80;2252.80
16491;DHT22;8356;51.214;3.270;2022-12-07T04:12:21;230.90;2252.80
16491;DHT22;8356;51.214;3.270;2022-12-07T04:14:46;230.90;2252.80
16491;DHT22;8356;51.214;3.270;2022-12-07T04:17:12;230.80;2252.80
16491;DHT22;8356;51.214;3.270;2022-12-07T04:19:38;230.90;2252.80
16491;DHT22;8356;51.214;3.270;2022-12-07T04:22:04;230.70;2252.80
16491;DHT22;8356;51.214;3.270;2022-12-07T04:24:30;230.70;2252.80
16491;DHT22;8356;51.214;3.270;2022-12-07T04:26:56;230.70;2252.80
16491;DHT22;8356;51.214;3.270;2022-12-07T04:29:22;230.70;2252.80
16491;DHT22;8356;51.214;3.270;2022-12-07T04:31:48;230.70;2252.80
16491;DHT22;8356;51.214;3.270;2022-12-07T04:34:15;230.70;2252.80
16491;DHT22;8356;51.214;3.270;2022-12-07T04:36:42;230.70;2252.80
16491;DHT22;8356;51.214;3.270;2022-12-07T04:39:30;230.70;2252.80
16491;DHT22;8356;51.214;3.270;2022-12-07T04:41:56;230.70;2252.80
16491;DHT22;8356;51.214;3.270;2022-12-07T04:44:23;205.70;2252.80
16491;DHT22;8356;51.214;3.270;2022-12-07T04:46:49;230.80;2252.80
16491;DHT22;8356;51.214;3.270;2022-12-07T04:49:15;230.60;2252.80
16491;DHT22;8356;51.214;3.270;2022-12-07T04:51:42;230.60;2252.80
16491;DHT22;8356;51.214;3.270;2022-12-07T04:54:08;230.70;2252.80
16491;DHT22;8356;51.214;3.270;2022-12-07T04:56:34;230.70;2252.80
16491;DHT22;8356;51.214;3.270;2022-12-07T04:59:01;230.60;2252.80
16491;DHT22;8356;51.214;3.270;2022-12-07T05:01:27;230.70;2252.80
16491;DHT22;8356;51.214;3.270;2022-12-07T05:03:52;230.60;2252.80
16491;DHT22;8356;51.214;3.270;2022-12-07T05:06:18;230.60;2252.80
16491;DHT22;8356;51.214;3.270;2022-12-07T05:08:44;230.60;2252.80
16491;DHT22;8356;51.214;3.270;2022-12-07T05:11:11;230.50;2252.80
16491;DHT22;8356;51.214;3.270;2022-12-07T05:14:15;230.50;2252.80
16491;DHT22;8356;51.214;3.270;2022-12-07T05:16:42;230.50;2252.80
16491;DHT22;8356;51.214;3.270;2022-12-07T05:19:10;230.50;2252.80
16491;DHT22;8356;51.214;3.270;2022-12-07T05:21:36;230.60;2252.80
16491;DHT22;8356;51.214;3.270;2022-12-07T05:24:03;230.50;2252.80
16491;DHT22;8356;51.214;3.270;2022-12-07T05:26:29;230.60;2252.80
16491;DHT22;8356;51.214;3.270;2022-12-07T05:28:55;230.50;2252.80
16491;DHT22;8356;51.214;3.270;2022-12-07T05:31:22;230.70;2252.80
16491;DHT22;8356;51.214;3.270;2022-12-07T05:33:48;230.70;2252.80
16491;DHT22;8356;51.214;3.270;2022-12-07T05:36:14;230.60;2252.80
16491;DHT22;8356;51.214;3.270;2022-12-07T05:38:40;230.50;2252.80
16491;DHT22;8356;51.214;3.270;2022-12-07T05:41:06;230.40;2252.80
16491;DHT22;8356;51.214;3.270;2022-12-07T05:43:32;230.40;2252.80
16491;DHT22;8356;51.214;3.270;2022-12-07T05:45:59;205.70;2252.80
16491;DHT22;8356;51.214;3.270;2022-12-07T05:48:25;205.60;2252.80
16491;DHT22;8356;51.214;3.270;2022-12-07T05:50:51;230.40;2252.80
16491;DHT22;8356;51.214;3.270;2022-12-07T05:53:18;230.70;2252.80
16491;DHT22;8356;51.214;3.270;2022-12-07T05:55:44;230.50;2252.80
16491;DHT22;8356;51.214;3.270;2022-12-07T05:58:10;230.40;2252.80
16491;DHT22;8356;51.214;3.270;2022-12-07T06:00:55;205.70;2252.80
16491;DHT22;8356;51.214;3.270;2022-12-07T06:03:21;230.40;2252.80
16491;DHT22;8356;51.214;3.270;2022-12-07T06:05:46;205.70;2252.80
16491;DHT22;8356;51.214;3.270;2022-12-07T06:08:12;205.70;2252.80
16491;DHT22;8356;51.214;3.270;2022-12-07T06:10:40;230.50;2252.80
16491;DHT22;8356;51.214;3.270;2022-12-07T06:13:05;230.60;2252.80
16491;DHT22;8356;51.214;3.270;2022-12-07T06:15:31;230.60;2252.80
16491;DHT22;8356;51.214;3.270;2022-12-07T06:17:57;230.70;2252.80
16491;DHT22;8356;51.214;3.270;2022-12-07T06:20:22;230.70;2252.80
16491;DHT22;8356;51.214;3.270;2022-12-07T06:22:48;230.60;2252.80
16491;DHT22;8356;51.214;3.270;2022-12-07T06:25:13;230.60;2252.80
16491;DHT22;8356;51.214;3.270;2022-12-07T06:27:39;230.60;2252.80
16491;DHT22;8356;51.214;3.270;2022-12-07T06:30:05;230.70;2252.80
16491;DHT22;8356;51.214;3.270;2022-12-07T06:32:36;230.60;2252.80
16491;DHT22;8356;51.214;3.270;2022-12-07T06:35:03;230.70;2252.80
16491;DHT22;8356;51.214;3.270;2022-12-07T06:37:28;230.60;2252.80
16491;DHT22;8356;51.214;3.270;2022-12-07T06:39:54;230.60;2252.80
16491;DHT22;8356;51.214;3.270;2022-12-07T06:42:20;230.50;2252.80
16491;DHT22;8356;51.214;3.270;2022-12-07T06:44:45;230.50;2252.80
16491;DHT22;8356;51.214;3.270;2022-12-07T06:47:11;230.60;2252.80
16491;DHT22;8356;51.214;3.270;2022-12-07T06:49:37;230.60;2252.80
16491;DHT22;8356;51.214;3.270;2022-12-07T06:52:03;230.60;2252.80
16491;DHT22;8356;51.214;3.270;2022-12-07T06:54:31;230.70;2252.80
16491;DHT22;8356;51.214;3.270;2022-12-07T06:56:56;230.70;2252.80
16491;DHT22;8356;51.214;3.270;2022-12-07T06:59:22;230.50;2252.80
16491;DHT22;8356;51.214;3.270;2022-12-07T07:01:48;230.60;2252.80
16491;DHT22;8356;51.214;3.270;2022-12-07T07:04:13;230.50;2252.80
16491;DHT22;8356;51.214;3.270;2022-12-07T07:06:39;230.40;2252.80
16491;DHT22;8356;51.214;3.270;2022-12-07T07:09:05;205.60;2252.80
16491;DHT22;8356;51.214;3.270;2022-12-07T07:11:31;205.60;2252.80
16491;DHT22;8356;51.214;3.270;2022-12-07T07:13:56;205.60;2252.80
16491;DHT22;8356;51.214;3.270;2022-12-07T07:16:24;205.50;2252.80
16491;DHT22;8356;51.214;3.270;2022-12-07T07:18:50;205.60;2252.80
16491;DHT22;8356;51.214;3.270;2022-12-07T07:21:15;205.50;2252.80
16491;DHT22;8356;51.214;3.270;2022-12-07T07:23:41;205.50;2252.80
16491;DHT22;8356;51.214;3.270;2022-12-07T07:26:07;205.70;2252.80
16491;DHT22;8356;51.214;3.270;2022-12-07T07:28:32;230.40;2252.80
16491;DHT22;8356;51.214;3.270;2022-12-07T07:30:58;230.50;2252.80
16491;DHT22;8356;51.214;3.270;2022-12-07T07:33:24;230.50;2252.80
16491;DHT22;8356;51.214;3.270;2022-12-07T07:35:49;230.60;2252.80
16491;DHT22;8356;51.214;3.270;2022-12-07T07:38:15;230.60;2252.80
16491;DHT22;8356;51.214;3.270;2022-12-07T07:40:41;230.60;2252.80
16491;DHT22;8356;51.214;3.270;2022-12-07T07:43:06;230.60;2252.80
16491;DHT22;8356;51.214;3.270;2022-12-07T07:45:32;230.50;2252.80
16491;DHT22;8356;51.214;3.270;2022-12-07T07:47:57;230.70;2252.80
16491;DHT22;8356;51.214;3.270;2022-12-07T07:50:23;230.70;2252.80
16491;DHT22;8356;51.214;3.270;2022-12-07T07:52:50;230.80;2252.80
16491;DHT22;8356;51.214;3.270;2022-12-07T07:55:16;230.80;2252.80
16491;DHT22;8356;51.214;3.270;2022-12-07T07:57:42;230.80;2252.80
16491;DHT22;8356;51.214;3.270;2022-12-07T08:00:11;230.70;2252.80
16491;DHT22;8356;51.214;3.270;2022-12-07T08:02:37;230.70;2252.80
16491;DHT22;8356;51.214;3.270;2022-12-07T08:05:03;230.70;2252.80
16491;DHT22;8356;51.214;3.270;2022-12-07T08:07:28;230.70;2252.80
16491;DHT22;8356;51.214;3.270;2022-12-07T08:09:54;230.80;2252.80
16491;DHT22;8356;51.214;3.270;2022-12-07T08:12:20;230.70;2252.80
16491;DHT22;8356;51.214;3.270;2022-12-07T08:14:45;230.80;2252.80
16491;DHT22;8356;51.214;3.270;2022-12-07T08:17:12;230.70;2252.80
16491;DHT22;8356;51.214;3.270;2022-12-07T08:19:38;230.70;2252.80
16491;DHT22;8356;51.214;3.270;2022-12-07T08:22:04;230.80;2252.80
16491;DHT22;8356;51.214;3.270;2022-12-07T08:24:32;230.80;2252.80
16491;DHT22;8356;51.214;3.270;2022-12-07T08:26:58;230.80;2252.80
16491;DHT22;8356;51.214;3.270;2022-12-07T08:29:23;230.80;2252.80
16491;DHT22;8356;51.214;3.270;2022-12-07T08:31:49;230.80;2252.80
16491;DHT22;8356;51.214;3.270;2022-12-07T08:34:14;230.70;2252.80
16491;DHT22;8356;51.214;3.270;2022-12-07T08:36:40;230.70;2252.80
16491;DHT22;8356;51.214;3.270;2022-12-07T08:39:06;230.70;2252.80
16491;DHT22;8356;51.214;3.270;2022-12-07T08:41:32;230.70;2252.80
16491;DHT22;8356;51.214;3.270;2022-12-07T08:43:58;230.80;2252.80
16491;DHT22;8356;51.214;3.270;2022-12-07T08:46:31;230.80;2252.80
16491;DHT22;8356;51.214;3.270;2022-12-07T08:49:13;230.90;2252.80
16491;DHT22;8356;51.214;3.270;2022-12-07T08:51:40;230.90;2252.80
16491;DHT22;8356;51.214;3.270;2022-12-07T08:54:09;230.90;2252.80
16491;DHT22;8356;51.214;3.270;2022-12-07T08:56:35;230.80;2252.80
16491;DHT22;8356;51.214;3.270;2022-12-07T08:59:01;230.80;2252.80
16491;DHT22;8356;51.214;3.270;2022-12-07T09:01:28;230.80;2252.80
16491;DHT22;8356;51.214;3.270;2022-12-07T09:03:54;230.80;2252.80
16491;DHT22;8356;51.214;3.270;2022-12-07T09:06:19;230.70;2252.80
16491;DHT22;8356;51.214;3.270;2022-12-07T09:08:48;230.70;2252.80
16491;DHT22;8356;51.214;3.270;2022-12-07T09:11:15;230.70;2252.80
16491;DHT22;8356;51.214;3.270;2022-12-07T09:13:41;230.80;2252.80
16491;DHT22;8356;51.214;3.270;2022-12-07T09:16:07;231.00;2252.80
16491;DHT22;8356;51.214;3.270;2022-12-07T09:18:33;231.20;2252.80
16491;DHT22;8356;51.214;3.270;2022-12-07T09:20:58;256.00;2252.80
16491;DHT22;8356;51.214;3.270;2022-12-07T09:23:24;256.10;2252.80
16491;DHT22;8356;51.214;3.270;2022-12-07T09:25:50;231.30;2252.80
16491;DHT22;8356;51.214;3.270;2022-12-07T09:28:15;231.30;2252.80
16491;DHT22;8356;51.214;3.270;2022-12-07T09:30:48;231.20;2252.80
16491;DHT22;8356;51.214;3.270;2022-12-07T09:33:14;231.00;2252.80
16491;DHT22;8356;51.214;3.270;2022-12-07T09:35:50;230.90;2252.80
16491;DHT22;8356;51.214;3.270;2022-12-07T09:38:16;230.80;2252.80
16491;DHT22;8356;51.214;3.270;2022-12-07T09:40:42;230.90;2252.80
16491;DHT22;8356;51.214;3.270;2022-12-07T09:43:20;231.20;2252.80
16491;DHT22;8356;51.214;3.270;2022-12-07T09:45:49;231.30;2252.80
16491;DHT22;8356;51.214;3.270;2022-12-07T09:48:35;231.30;2252.80
16491;DHT22;8356;51.214;3.270;2022-12-07T09:51:03;256.00;2252.80
16491;DHT22;8356;51.214;3.270;2022-12-07T09:53:38;256.10;2252.80
16491;DHT22;8356;51.214;3.270;2022-12-07T09:56:04;256.20;2252.80
16491;DHT22;8356;51.214;3.270;2022-12-07T09:58:31;256.10;2252.80
16491;DHT22;8356;51.214;3.270;2022-12-07T10:01:11;256.20;2252.80
16491;DHT22;8356;51.214;3.270;2022-12-07T10:03:40;256.20;2252.80
16491;DHT22;8356;51.214;3.270;2022-12-07T10:06:06;256.20;2252.80
16491;DHT22;8356;51.214;3.270;2022-12-07T10:08:32;256.20;2252.80
16491;DHT22;8356;51.214;3.270;2022-12-07T10:11:02;256.40;2252.80
16491;DHT22;8356;51.214;3.270;2022-12-07T10:13:37;256.20;2252.80
16491;DHT22;8356;51.214;3.270;2022-12-07T10:16:03;256.40;2252.80
16491;DHT22;8356;51.214;3.270;2022-12-07T10:18:33;256.50;2252.80
16491;DHT22;8356;51.214;3.270;2022-12-07T10:21:14;256.30;2252.80
16491;DHT22;8356;51.214;3.270;2022-12-07T10:24:04;256.20;2252.80
16491;DHT22;8356;51.214;3.270;2022-12-07T10:29:29;256.50;2252.80
16491;DHT22;8356;51.214;3.270;2022-12-07T10:32:04;256.50;2252.80
16491;DHT22;8356;51.214;3.270;2022-12-07T10:34:31;256.40;2252.80
16491;DHT22;8356;51.214;3.270;2022-12-07T10:37:27;256.30;2252.80
16491;DHT22;8356;51.214;3.270;2022-12-07T10:39:57;256.60;2252.80
16491;DHT22;8356;51.214;3.270;2022-12-07T10:42:30;256.80;2252.80
16491;DHT22;8356;51.214;3.270;2022-12-07T10:59:42;256.20;2252.80
16491;DHT22;8356;51.214;3.270;2022-12-07T11:02:24;256.50;2252.80
16491;DHT22;8356;51.214;3.270;2022-12-07T11:39:00;256.50;2252.80
16491;DHT22;8356;51.214;3.270;2022-12-07T11:41:34;256.40;2252.80
16491;DHT22;8356;51.214;3.270;2022-12-07T11:44:17;256.50;2252.80
16491;DHT22;8356;51.214;3.270;2022-12-07T11:46:57;256.50;2252.80
16491;DHT22;8356;51.214;3.270;2022-12-07T11:49:50;256.50;2252.80
16491;DHT22;8356;51.214;3.270;2022-12-07T11:52:51;256.50;2252.80
16491;DHT22;8356;51.214;3.270;2022-12-07T11:55:29;256.60;2252.80
16491;DHT22;8356;51.214;3.270;2022-12-07T12:00:38;256.90;2252.80
16491;DHT22;8356;51.214;3.270;2022-12-07T12:03:11;281.60;2278.40
16491;DHT22;8356;51.214;3.270;2022-12-07T12:05:39;281.60;2278.40
16491;DHT22;8356;51.214;3.270;2022-12-07T12:13:29;281.70;2278.40
16491;DHT22;8356;51.214;3.270;2022-12-07T12:21:17;256.70;2252.80
16491;DHT22;8356;51.214;3.270;2022-12-07T12:23:50;256.60;2252.80
16491;DHT22;8356;51.214;3.270;2022-12-07T12:26:28;256.50;2252.80
16491;DHT22;8356;51.214;3.270;2022-12-07T12:28:58;256.40;2252.80
16491;DHT22;8356;51.214;3.270;2022-12-07T12:34:02;256.50;2252.80
16491;DHT22;8356;51.214;3.270;2022-12-07T12:39:09;256.30;2252.80
16491;DHT22;8356;51.214;3.270;2022-12-07T12:47:38;256.20;2252.80
16491;DHT22;8356;51.214;3.270;2022-12-07T12:50:16;256.20;2252.80
16491;DHT22;8356;51.214;3.270;2022-12-07T12:57:36;256.50;2252.80
16491;DHT22;8356;51.214;3.270;2022-12-07T13:00:22;256.30;2252.80
16491;DHT22;8356;51.214;3.270;2022-12-07T13:02:56;256.30;2252.80
16491;DHT22;8356;51.214;3.270;2022-12-07T13:05:28;256.30;2252.80
16491;DHT22;8356;51.214;3.270;2022-12-07T13:15:33;256.40;2252.80
16491;DHT22;8356;51.214;3.270;2022-12-07T13:18:01;256.30;2252.80
16491;DHT22;8356;51.214;3.270;2022-12-07T13:20:45;256.20;2252.80
16491;DHT22;8356;51.214;3.270;2022-12-07T13:23:13;256.20;2252.80
16491;DHT22;8356;51.214;3.270;2022-12-07T13:25:51;256.20;2252.80
16491;DHT22;8356;51.214;3.270;2022-12-07T13:28:21;256.20;2252.80
16491;DHT22;8356;51.214;3.270;2022-12-07T13:31:20;256.10;2252.80
16491;DHT22;8356;51.214;3.270;2022-12-07T13:33:48;256.00;2252.80
16491;DHT22;8356;51.214;3.270;2022-12-07T13:36:30;231.30;2252.80
16491;DHT22;8356;51.214;3.270;2022-12-07T13:39:16;231.30;2252.80
16491;DHT22;8356;51.214;3.270;2022-12-07T13:41:43;231.30;2252.80
16491;DHT22;8356;51.214;3.270;2022-12-07T13:44:14;256.00;2252.80
16491;DHT22;8356;51.214;3.270;2022-12-07T13:49:32;256.10;2252.80
16491;DHT22;8356;51.214;3.270;2022-12-07T13:52:18;256.20;2252.80
16491;DHT22;8356;51.214;3.270;2022-12-07T13:57:14;256.30;2252.80
16491;DHT22;8356;51.214;3.270;2022-12-07T13:59:40;256.30;2252.80
16491;DHT22;8356;51.214;3.270;2022-12-07T14:02:25;256.20;2252.80
16491;DHT22;8356;51.214;3.270;2022-12-07T14:04:52;256.10;2252.80
16491;DHT22;8356;51.214;3.270;2022-12-07T14:09:59;231.20;2252.80
16491;DHT22;8356;51.214;3.270;2022-12-07T14:12:27;231.10;2252.80
16491;DHT22;8356;51.214;3.270;2022-12-07T14:14:54;230.90;2252.80
16491;DHT22;8356;51.214;3.270;2022-12-07T14:17:22;230.90;2252.80
16491;DHT22;8356;51.214;3.270;2022-12-07T14:20:01;230.80;2252.80
16491;DHT22;8356;51.214;3.270;2022-12-07T14:22:35;230.80;2252.80
16491;DHT22;8356;51.214;3.270;2022-12-07T14:27:39;230.90;2252.80
16491;DHT22;8356;51.214;3.270;2022-12-07T14:30:16;231.00;2252.80
16491;DHT22;8356;51.214;3.270;2022-12-07T14:32:43;231.00;2252.80
16491;DHT22;8356;51.214;3.270;2022-12-07T14:35:15;230.90;2252.80
16491;DHT22;8356;51.214;3.270;2022-12-07T14:37:43;231.20;2252.80
16491;DHT22;8356;51.214;3.270;2022-12-07T14:40:18;231.30;2252.80
16491;DHT22;8356;51.214;3.270;2022-12-07T14:42:46;256.00;2252.80
16491;DHT22;8356;51.214;3.270;2022-12-07T14:45:18;231.30;2252.80
16491;DHT22;8356;51.214;3.270;2022-12-07T14:47:45;256.00;2252.80
16491;DHT22;8356;51.214;3.270;2022-12-07T14:50:15;231.20;2252.80
16491;DHT22;8356;51.214;3.270;2022-12-07T14:52:44;231.20;2252.80
16491;DHT22;8356;51.214;3.270;2022-12-07T14:55:23;231.20;2252.80
16491;DHT22;8356;51.214;3.270;2022-12-07T14:57:49;231.30;2252.80
16491;DHT22;8356;51.214;3.270;2022-12-07T15:00:16;256.00;2252.80
16491;DHT22;8356;51.214;3.270;2022-12-07T15:02:45;231.30;2252.80
16491;DHT22;8356;51.214;3.270;2022-12-07T15:05:11;231.30;2252.80
16491;DHT22;8356;51.214;3.270;2022-12-07T15:07:37;256.00;2252.80
16491;DHT22;8356;51.214;3.270;2022-12-07T15:10:03;256.10;2252.80
16491;DHT22;8356;51.214;3.270;2022-12-07T15:12:29;256.20;2252.80
16491;DHT22;8356;51.214;3.270;2022-12-07T15:14:54;256.30;2252.80
16491;DHT22;8356;51.214;3.270;2022-12-07T15:17:20;256.30;2252.80
16491;DHT22;8356;51.214;3.270;2022-12-07T15:19:46;256.40;2252.80
16491;DHT22;8356;51.214;3.270;2022-12-07T15:22:11;256.20;2252.80
16491;DHT22;8356;51.214;3.270;2022-12-07T15:24:37;256.30;2252.80
16491;DHT22;8356;51.214;3.270;2022-12-07T15:27:03;256.20;2252.80
16491;DHT22;8356;51.214;3.270;2022-12-07T15:29:29;256.20;2252.80
16491;DHT22;8356;51.214;3.270;2022-12-07T15:31:55;256.20;2252.80
16491;DHT22;8356;51.214;3.270;2022-12-07T15:34:21;256.20;2252.80
16491;DHT22;8356;51.214;3.270;2022-12-07T15:36:46;256.20;2252.80
16491;DHT22;8356;51.214;3.270;2022-12-07T15:39:12;256.20;2252.80
16491;DHT22;8356;51.214;3.270;2022-12-07T15:41:38;256.20;2252.80
16491;DHT22;8356;51.214;3.270;2022-12-07T15:44:04;256.30;2252.80
16491;DHT22;8356;51.214;3.270;2022-12-07T15:46:48;256.20;2252.80
16491;DHT22;8356;51.214;3.270;2022-12-07T15:49:16;256.20;2252.80
16491;DHT22;8356;51.214;3.270;2022-12-07T15:51:43;256.10;2252.80
16491;DHT22;8356;51.214;3.270;2022-12-07T15:54:35;256.00;2252.80
16491;DHT22;8356;51.214;3.270;2022-12-07T15:57:01;256.00;2252.80
16491;DHT22;8356;51.214;3.270;2022-12-07T15:59:28;231.30;2252.80
16491;DHT22;8356;51.214;3.270;2022-12-07T16:01:54;231.30;2252.80
16491;DHT22;8356;51.214;3.270;2022-12-07T16:04:20;256.10;2252.80
16491;DHT22;8356;51.214;3.270;2022-12-07T16:06:45;256.10;2252.80
16491;DHT22;8356;51.214;3.270;2022-12-07T16:09:11;256.20;2252.80
16491;DHT22;8356;51.214;3.270;2022-12-07T16:11:37;256.10;2252.80
16491;DHT22;8356;51.214;3.270;2022-12-07T16:14:03;256.10;2252.80
16491;DHT22;8356;51.214;3.270;2022-12-07T16:16:29;256.10;2252.80
16491;DHT22;8356;51.214;3.270;2022-12-07T16:18:54;256.10;2252.80
16491;DHT22;8356;51.214;3.270;2022-12-07T16:21:21;256.00;2252.80
16491;DHT22;8356;51.214;3.270;2022-12-07T16:23:46;256.00;2252.80
16491;DHT22;8356;51.214;3.270;2022-12-07T16:26:15;256.00;2252.80
16491;DHT22;8356;51.214;3.270;2022-12-07T16:28:40;256.00;2252.80
16491;DHT22;8356;51.214;3.270;2022-12-07T16:31:09;231.30;2252.80
16491;DHT22;8356;51.214;3.270;2022-12-07T16:33:37;231.30;2252.80
16491;DHT22;8356;51.214;3.270;2022-12-07T16:36:04;231.30;2252.80
16491;DHT22;8356;51.214;3.270;2022-12-07T16:38:30;231.20;2252.80
16491;DHT22;8356;51.214;3.270;2022-12-07T16:40:56;231.20;2252.80
16491;DHT22;8356;51.214;3.270;2022-12-07T16:43:22;231.10;2252.80
16491;DHT22;8356;51.214;3.270;2022-12-07T16:45:48;231.10;2252.80
16491;DHT22;8356;51.214;3.270;2022-12-07T16:48:15;231.10;2252.80
16491;DHT22;8356;51.214;3.270;2022-12-07T16:50:41;231.10;2252.80
16491;DHT22;8356;51.214;3.270;2022-12-07T16:53:09;231.20;2252.80
16491;DHT22;8356;51.214;3.270;2022-12-07T16:55:39;231.20;2252.80
16491;DHT22;8356;51.214;3.270;2022-12-07T16:58:05;231.20;2252.80
16491;DHT22;8356;51.214;3.270;2022-12-07T17:00:31;231.20;2252.80
16491;DHT22;8356;51.214;3.270;2022-12-07T17:02:57;231.10;2252.80
16491;DHT22;8356;51.214;3.270;2022-12-07T17:05:23;231.10;2252.80
16491;DHT22;8356;51.214;3.270;2022-12-07T17:07:50;231.10;2252.80
16491;DHT22;8356;51.214;3.270;2022-12-07T17:10:16;231.10;2252.80
16491;DHT22;8356;51.214;3.270;2022-12-07T17:12:41;231.00;2252.80
16491;DHT22;8356;51.214;3.270;2022-12-07T22:32:34;205.60;2252.80
16491;DHT22;8356;51.214;3.270;2022-12-07T22:34:59;205.50;2252.80
16491;DHT22;8356;51.214;3.270;2022-12-07T22:37:26;205.60;2252.80
16491;DHT22;8356;51.214;3.270;2022-12-07T22:39:52;205.60;2252.80
16491;DHT22;8356;51.214;3.270;2022-12-07T22:42:18;205.40;2252.80
16491;DHT22;8356;51.214;3.270;2022-12-07T22:44:43;205.60;2252.80